Time;durP1;ratioP1;P1;durP2;ratioP2;P2;SDS_P1;SDS_P2;PMS_P1;PMS_P2;Temp;Humidity;BMP_temperature;BMP_pressure;BME280_temperature;BME280_humidity;BME280_pressure;Samples;Min_cycle;Max_cycle;Signal;HPM_P1;HPM_P2
2023/12/21 00:01:44;;;;;;;7.50;4.00;;;-0.50;99.90;;;;;;5056257;28;20047;-79
2023/12/21 00:04:10;;;;;;;7.40;3.75;;;-0.60;99.90;;;;;;5021630;28;20086;-79
2023/12/21 00:06:35;;;;;;;6.70;4.38;;;-0.60;99.90;;;;;;5056337;28;20500;-79
2023/12/21 00:09:01;;;;;;;8.00;4.50;;;-0.70;99.90;;;;;;5055023;28;20029;-79
2023/12/21 00:11:27;;;;;;;6.97;3.80;;;-0.70;99.90;;;;;;5054478;28;20065;-79
2023/12/21 00:13:53;;;;;;;8.07;4.20;;;-0.70;99.90;;;;;;5055910;28;20025;-79
2023/12/21 00:16:18;;;;;;;7.55;3.50;;;-0.70;99.90;;;;;;5055711;28;20025;-79
2023/12/21 00:18:44;;;;;;;6.53;3.75;;;-0.60;99.90;;;;;;5052408;28;20031;-79
2023/12/21 00:21:10;;;;;;;4.90;3.53;;;-0.60;99.90;;;;;;5049318;28;20029;-79
2023/12/21 00:23:35;;;;;;;4.85;3.50;;;-0.50;99.90;;;;;;5044980;28;20037;-79
2023/12/21 00:26:01;;;;;;;4.88;3.25;;;-0.50;99.90;;;;;;5038772;28;20030;-79
2023/12/21 00:28:27;;;;;;;4.45;3.03;;;-0.50;99.90;;;;;;5052817;28;20029;-78
2023/12/21 00:30:52;;;;;;;5.28;3.47;;;-0.50;99.90;;;;;;5053744;28;20570;-78
2023/12/21 00:33:18;;;;;;;5.25;3.28;;;-0.50;99.90;;;;;;5054157;28;20061;-78
2023/12/21 00:35:44;;;;;;;5.95;3.42;;;-0.50;99.90;;;;;;5051832;28;20025;-78
2023/12/21 00:38:09;;;;;;;5.38;3.50;;;-0.50;99.90;;;;;;5052514;28;20078;-78
2023/12/21 00:40:35;;;;;;;7.90;4.45;;;-0.50;99.90;;;;;;5053017;28;20386;-78
2023/12/21 00:43:01;;;;;;;8.55;4.95;;;-0.50;99.90;;;;;;5052603;28;20036;-78
2023/12/21 00:45:26;;;;;;;7.85;3.95;;;-0.50;99.90;;;;;;5054051;28;20025;-78
2023/12/21 00:47:52;;;;;;;10.13;5.18;;;-0.50;99.90;;;;;;5053881;28;20489;-78
2023/12/21 00:50:18;;;;;;;6.72;3.95;;;-0.50;99.90;;;;;;5069441;28;20029;-78
2023/12/21 00:52:43;;;;;;;8.73;4.60;;;-0.50;99.90;;;;;;5069463;28;20397;-78
2023/12/21 00:55:09;;;;;;;9.15;4.88;;;-0.50;99.90;;;;;;5054280;28;20041;-78
2023/12/21 00:57:35;;;;;;;7.53;4.20;;;-0.50;99.90;;;;;;5053646;28;20021;-78
2023/12/21 01:00:01;;;;;;;8.02;4.63;;;-0.50;99.90;;;;;;5052384;28;20032;-78
2023/12/21 01:02:27;;;;;;;7.70;4.50;;;-0.50;99.90;;;;;;5053503;28;20029;-78
2023/12/21 01:04:52;;;;;;;10.57;5.53;;;-0.60;99.90;;;;;;5053830;28;20051;-78
2023/12/21 01:07:18;;;;;;;8.10;4.75;;;-0.60;99.90;;;;;;5052337;28;20035;-78
2023/12/21 01:09:43;;;;;;;7.05;4.03;;;-0.70;99.90;;;;;;5053820;28;20113;-78
2023/12/21 01:12:09;;;;;;;7.32;4.35;;;-0.70;99.90;;;;;;5053368;28;20071;-78
2023/12/21 01:14:35;;;;;;;7.25;4.18;;;-0.60;99.90;;;;;;5053390;28;20025;-78
2023/12/21 01:17:01;;;;;;;6.55;3.53;;;-0.60;99.90;;;;;;5053563;28;20018;-78
2023/12/21 01:19:26;;;;;;;7.22;3.53;;;-0.60;99.90;;;;;;5053877;28;20060;-78
2023/12/21 01:21:52;;;;;;;7.65;3.88;;;-0.60;99.90;;;;;;5053135;28;20033;-78
2023/12/21 01:24:18;;;;;;;5.50;3.78;;;-0.60;99.90;;;;;;5053724;28;20033;-78
2023/12/21 01:26:44;;;;;;;6.20;3.72;;;-0.60;99.90;;;;;;5052412;28;20477;-78
2023/12/21 01:29:10;;;;;;;6.88;3.63;;;-0.50;99.90;;;;;;5053528;28;20026;-78
2023/12/21 01:31:36;;;;;;;6.85;3.70;;;-0.60;99.90;;;;;;5051988;28;20025;-78
2023/12/21 01:34:02;;;;;;;5.55;3.35;;;-0.60;99.90;;;;;;5053589;28;20074;-78
2023/12/21 01:36:28;;;;;;;7.25;3.80;;;-0.50;99.90;;;;;;5053492;28;20037;-78
2023/12/21 01:38:54;;;;;;;18.00;9.20;;;-0.50;99.90;;;;;;5053635;28;20070;-79
2023/12/21 01:41:20;;;;;;;27.80;10.98;;;-0.50;99.90;;;;;;5053851;28;20032;-78
2023/12/21 01:43:46;;;;;;;14.90;7.32;;;-0.50;99.90;;;;;;5053369;28;20029;-78
2023/12/21 01:46:11;;;;;;;11.30;6.05;;;-0.50;99.90;;;;;;5053108;28;20107;-78
2023/12/21 01:48:39;;;;;;;6.45;3.80;;;-0.50;99.90;;;;;;5056831;28;20075;-78
2023/12/21 01:51:05;;;;;;;4.78;3.20;;;-0.50;99.90;;;;;;5071939;28;20057;-78
2023/12/21 01:53:33;;;;;;;5.50;2.92;;;-0.50;99.90;;;;;;5039287;28;20079;-78
2023/12/21 01:55:59;;;;;;;4.78;3.15;;;-0.50;99.90;;;;;;5057438;28;20048;-78
2023/12/21 01:58:25;;;;;;;5.68;3.38;;;-0.40;99.90;;;;;;5055583;28;20021;-78
2023/12/21 02:00:52;;;;;;;5.63;3.60;;;-0.50;99.90;;;;;;5056450;28;20040;-78
2023/12/21 02:03:18;;;;;;;7.70;4.38;;;-0.50;99.90;;;;;;5056672;28;20033;-78
2023/12/21 02:05:44;;;;;;;12.52;4.90;;;-0.50;99.90;;;;;;5056198;28;20029;-78
2023/12/21 02:08:10;;;;;;;6.68;3.90;;;-0.50;99.90;;;;;;5057319;28;20115;-78
2023/12/21 02:10:39;;;;;;;6.70;3.75;;;-0.50;99.90;;;;;;5055567;28;20075;-78
2023/12/21 02:13:05;;;;;;;6.63;3.55;;;-0.40;99.90;;;;;;5056675;28;20033;-78
2023/12/21 02:15:31;;;;;;;6.78;3.60;;;-0.50;99.90;;;;;;5056829;28;20032;-78
2023/12/21 02:17:59;;;;;;;7.68;4.05;;;-0.40;99.90;;;;;;5056415;28;20029;-78
2023/12/21 02:20:25;;;;;;;6.18;3.88;;;-0.40;99.90;;;;;;5072154;28;20036;-78
2023/12/21 02:22:53;;;;;;;7.13;3.75;;;-0.40;99.90;;;;;;5056312;28;20041;-78
2023/12/21 02:25:19;;;;;;;5.05;3.30;;;-0.40;99.90;;;;;;5055330;28;20121;-78
2023/12/21 02:27:49;;;;;;;6.65;3.55;;;-0.40;99.90;;;;;;5056390;28;20409;-78
2023/12/21 02:30:15;;;;;;;6.00;3.63;;;-0.40;99.90;;;;;;5056573;28;20053;-78
2023/12/21 02:32:40;;;;;;;5.32;3.15;;;-0.40;99.90;;;;;;5071485;28;20119;-78
2023/12/21 02:35:06;;;;;;;6.47;3.65;;;-0.40;99.90;;;;;;5055947;28;20025;-78
2023/12/21 02:37:32;;;;;;;6.28;3.92;;;-0.40;99.90;;;;;;5054969;28;20099;-78
2023/12/21 02:39:58;;;;;;;6.70;3.78;;;-0.40;99.90;;;;;;5056370;28;20040;-78
2023/12/21 02:42:23;;;;;;;5.38;3.50;;;-0.40;99.90;;;;;;5071344;28;20112;-78
2023/12/21 02:44:49;;;;;;;5.53;3.10;;;-0.40;99.90;;;;;;5071438;28;20025;-78
2023/12/21 02:47:14;;;;;;;5.15;3.13;;;-0.40;99.90;;;;;;5054531;28;20037;-78
2023/12/21 02:49:40;;;;;;;5.20;3.22;;;-0.40;99.90;;;;;;5071582;28;20413;-78
2023/12/21 02:52:06;;;;;;;4.75;3.00;;;-0.40;99.90;;;;;;5055518;28;20370;-78
2023/12/21 02:54:31;;;;;;;4.85;2.83;;;-0.40;99.90;;;;;;5053841;28;20384;-78
2023/12/21 02:56:57;;;;;;;6.18;2.88;;;-0.30;99.90;;;;;;5044243;28;20033;-78
2023/12/21 02:59:23;;;;;;;6.97;3.22;;;-0.30;99.90;;;;;;5044249;28;20033;-78
2023/12/21 03:01:49;;;;;;;4.32;2.72;;;-0.30;99.90;;;;;;5045340;28;20029;-78
2023/12/21 03:04:15;;;;;;;5.60;3.22;;;-0.30;99.90;;;;;;5048821;28;20075;-78
2023/12/21 03:06:40;;;;;;;6.50;3.10;;;-0.30;99.90;;;;;;5061737;28;20131;-78
2023/12/21 03:09:06;;;;;;;5.63;2.90;;;-0.30;99.90;;;;;;5045750;28;20025;-78
2023/12/21 03:11:32;;;;;;;4.93;3.05;;;-0.30;99.90;;;;;;5052793;28;20436;-78
2023/12/21 03:13:58;;;;;;;5.13;2.95;;;-0.30;99.90;;;;;;5050105;28;20063;-78
2023/12/21 03:16:24;;;;;;;4.93;2.83;;;-0.30;99.90;;;;;;5062971;28;20045;-78
2023/12/21 03:18:50;;;;;;;5.40;3.63;;;-0.30;99.90;;;;;;5045451;28;20026;-78
2023/12/21 03:21:16;;;;;;;4.95;2.97;;;-0.30;99.90;;;;;;5046982;28;20443;-78
2023/12/21 03:23:42;;;;;;;5.45;2.65;;;-0.30;99.90;;;;;;5051526;28;20417;-78
2023/12/21 03:26:09;;;;;;;6.35;2.85;;;-0.30;99.90;;;;;;5037554;28;20032;-78
2023/12/21 03:28:34;;;;;;;5.88;3.17;;;-0.30;99.90;;;;;;5045079;28;20108;-78
2023/12/21 03:31:08;;;;;;;5.30;3.10;;;-0.30;99.90;;;;;;5046700;28;20113;-78
2023/12/21 03:33:34;;;;;;;4.97;2.90;;;-0.30;99.90;;;;;;5055523;28;20042;-78
2023/12/21 03:35:59;;;;;;;5.15;3.00;;;-0.30;99.90;;;;;;5053471;28;20029;-78
2023/12/21 03:38:25;;;;;;;6.43;2.97;;;-0.30;99.90;;;;;;5054668;28;20033;-78
2023/12/21 03:40:50;;;;;;;6.55;3.47;;;-0.30;99.90;;;;;;5052117;28;20120;-78
2023/12/21 03:43:16;;;;;;;5.20;3.28;;;-0.30;99.90;;;;;;5045133;28;20105;-78
2023/12/21 03:45:42;;;;;;;5.47;2.90;;;-0.30;99.90;;;;;;5045929;28;20033;-78
2023/12/21 03:48:11;;;;;;;4.80;3.08;;;-0.30;99.90;;;;;;5054566;28;20030;-78
2023/12/21 03:50:37;;;;;;;4.82;2.75;;;-0.30;99.90;;;;;;5039831;28;20032;-78
2023/12/21 03:53:03;;;;;;;4.60;2.50;;;-0.30;99.90;;;;;;5050804;28;20166;-78
2023/12/21 03:55:29;;;;;;;4.72;2.75;;;-0.30;99.90;;;;;;5047731;28;20045;-78
2023/12/21 03:57:56;;;;;;;6.43;2.95;;;-0.30;99.90;;;;;;5038200;28;20473;-78
2023/12/21 04:00:22;;;;;;;4.93;3.05;;;-0.30;99.90;;;;;;5046826;28;20116;-78
2023/12/21 04:02:48;;;;;;;4.47;2.60;;;-0.30;99.90;;;;;;5043708;28;20117;-78
2023/12/21 04:05:13;;;;;;;7.55;3.83;;;-0.30;99.90;;;;;;5047777;28;20084;-78
2023/12/21 04:07:39;;;;;;;6.32;3.28;;;-0.30;99.90;;;;;;5059942;28;20052;-78
2023/12/21 04:10:05;;;;;;;6.10;3.50;;;-0.30;99.90;;;;;;5042227;28;20033;-78
2023/12/21 04:12:31;;;;;;;6.43;3.88;;;-0.30;99.90;;;;;;5045611;28;20112;-78
2023/12/21 04:14:56;;;;;;;6.07;4.00;;;-0.30;99.90;;;;;;5043238;28;20117;-78
2023/12/21 04:17:22;;;;;;;8.52;5.18;;;-0.30;99.90;;;;;;5046260;28;20033;-78
2023/12/21 04:19:48;;;;;;;9.98;5.47;;;-0.30;99.90;;;;;;5040451;28;20464;-78
2023/12/21 04:22:13;;;;;;;6.80;3.53;;;-0.40;99.90;;;;;;5065098;28;20087;-78
2023/12/21 04:24:40;;;;;;;5.22;3.25;;;-0.40;99.90;;;;;;5045177;28;20057;-78
2023/12/21 04:27:06;;;;;;;5.47;2.80;;;-0.40;99.90;;;;;;5045827;28;20523;-78
2023/12/21 04:29:32;;;;;;;5.30;3.05;;;-0.40;99.90;;;;;;5055366;28;20029;-78
2023/12/21 04:31:58;;;;;;;4.38;2.40;;;-0.30;99.90;;;;;;5045451;28;20458;-78
2023/12/21 04:34:23;;;;;;;4.25;2.50;;;-0.30;99.90;;;;;;5040193;28;20092;-78
2023/12/21 04:36:49;;;;;;;4.50;2.75;;;-0.30;99.90;;;;;;5052263;28;20021;-78
2023/12/21 04:39:15;;;;;;;6.60;3.17;;;-0.30;99.90;;;;;;5048508;28;20034;-78
2023/12/21 04:41:40;;;;;;;6.65;3.35;;;-0.20;99.90;;;;;;5049003;28;20390;-78
2023/12/21 04:44:06;;;;;;;4.10;2.72;;;-0.20;99.90;;;;;;5052010;28;20017;-78
2023/12/21 04:46:32;;;;;;;4.25;2.88;;;-0.20;99.90;;;;;;5039151;28;20029;-78
2023/12/21 04:48:58;;;;;;;5.88;3.20;;;-0.20;99.90;;;;;;5069418;28;20516;-78
2023/12/21 04:51:24;;;;;;;4.60;2.88;;;-0.20;99.90;;;;;;5048208;28;20033;-78
2023/12/21 04:53:49;;;;;;;6.05;2.30;;;-0.20;99.90;;;;;;5052411;28;20039;-78
2023/12/21 04:56:15;;;;;;;4.20;2.67;;;-0.10;99.90;;;;;;5044800;28;20033;-78
2023/12/21 04:58:42;;;;;;;4.47;2.22;;;-0.10;99.90;;;;;;5034204;28;20071;-78
2023/12/21 05:01:08;;;;;;;3.83;2.65;;;-0.10;99.90;;;;;;5053099;28;20032;-78
2023/12/21 05:03:34;;;;;;;4.15;2.30;;;-0.10;99.90;;;;;;5053491;28;20029;-78
2023/12/21 05:06:01;;;;;;;5.18;3.00;;;-0.10;99.90;;;;;;5054146;28;20044;-78
2023/12/21 05:08:26;;;;;;;5.10;3.08;;;-0.10;99.90;;;;;;5052662;28;20033;-78
2023/12/21 05:10:52;;;;;;;5.03;3.00;;;-0.10;99.90;;;;;;5054177;28;20033;-78
2023/12/21 05:13:19;;;;;;;6.40;3.30;;;-0.10;99.90;;;;;;5052706;28;20574;-78
2023/12/21 05:15:45;;;;;;;6.28;3.83;;;-0.10;99.90;;;;;;5054032;28;20151;-78
2023/12/21 05:18:11;;;;;;;6.72;4.07;;;-0.10;99.90;;;;;;5054334;28;20063;-78
2023/12/21 05:20:36;;;;;;;8.43;6.20;;;-0.10;99.90;;;;;;5054601;28;20096;-79
2023/12/21 05:23:02;;;;;;;7.40;5.15;;;-0.10;99.90;;;;;;5073521;28;20139;-78
2023/12/21 05:25:28;;;;;;;11.68;6.47;;;-0.10;99.90;;;;;;5056947;28;20057;-78
2023/12/21 05:27:54;;;;;;;9.02;4.32;;;-0.10;99.90;;;;;;5058099;28;20036;-78
2023/12/21 05:30:20;;;;;;;10.95;6.35;;;-0.10;99.90;;;;;;5056773;28;20029;-78
2023/12/21 05:32:46;;;;;;;12.63;7.05;;;-0.10;99.90;;;;;;5074081;28;20473;-78
2023/12/21 05:35:13;;;;;;;8.57;5.55;;;-0.10;99.90;;;;;;5040912;28;20043;-78
2023/12/21 05:37:39;;;;;;;8.23;5.68;;;-0.10;99.90;;;;;;5052450;28;20079;-78
2023/12/21 05:40:06;;;;;;;7.95;4.82;;;-0.10;99.90;;;;;;5048500;28;20025;-78
2023/12/21 05:42:32;;;;;;;6.25;4.25;;;-0.10;99.90;;;;;;5054667;28;20029;-78
2023/12/21 05:44:58;;;;;;;5.40;3.22;;;-0.10;99.90;;;;;;5053155;28;20394;-78
2023/12/21 05:47:24;;;;;;;6.93;3.42;;;-0.10;99.90;;;;;;5039921;28;20104;-78
2023/12/21 05:49:50;;;;;;;5.03;3.15;;;-0.10;99.90;;;;;;5047939;28;20075;-78
2023/12/21 05:52:15;;;;;;;6.60;3.38;;;-0.10;99.90;;;;;;5047623;28;20025;-78
2023/12/21 05:54:41;;;;;;;5.63;3.13;;;-0.10;99.90;;;;;;5056099;28;20118;-78
2023/12/21 05:57:10;;;;;;;5.50;3.13;;;-0.10;99.90;;;;;;5072727;28;20070;-78
2023/12/21 05:59:37;;;;;;;6.15;3.75;;;0.00;99.90;;;;;;5057508;28;20020;-78
2023/12/21 06:02:03;;;;;;;5.72;3.40;;;0.00;99.90;;;;;;5057416;28;20565;-78
2023/12/21 06:04:28;;;;;;;8.38;4.30;;;0.00;99.90;;;;;;5057303;28;20033;-78
2023/12/21 06:06:54;;;;;;;6.60;4.10;;;0.00;99.90;;;;;;5056764;28;20484;-78
2023/12/21 06:09:20;;;;;;;7.13;4.32;;;0.00;99.90;;;;;;5059834;28;20135;-79
2023/12/21 06:11:45;;;;;;;6.00;4.25;;;0.00;99.90;;;;;;5058222;28;20025;-79
2023/12/21 06:14:11;;;;;;;8.50;4.68;;;0.00;99.90;;;;;;5055383;28;20401;-78
2023/12/21 06:16:37;;;;;;;6.25;4.15;;;0.00;99.90;;;;;;5057055;28;20099;-78
2023/12/21 06:19:09;;;;;;;8.07;4.72;;;0.00;99.90;;;;;;5056434;28;20025;-78
2023/12/21 06:21:39;;;;;;;8.43;5.07;;;0.00;99.90;;;;;;5056067;28;20083;-78
2023/12/21 06:24:06;;;;;;;6.50;3.88;;;0.00;99.90;;;;;;5055119;28;20017;-78
2023/12/21 06:26:32;;;;;;;9.18;4.97;;;0.00;99.90;;;;;;5055062;28;20033;-78
2023/12/21 06:28:58;;;;;;;7.70;5.03;;;0.00;99.90;;;;;;5058036;28;20029;-79
2023/12/21 06:31:24;;;;;;;10.45;6.32;;;0.00;99.90;;;;;;5074845;28;20044;-79
2023/12/21 06:33:50;;;;;;;9.88;5.63;;;-0.10;99.90;;;;;;5056684;28;20041;-78
2023/12/21 06:36:16;;;;;;;11.80;7.03;;;-0.10;99.90;;;;;;5058972;28;20056;-78
2023/12/21 06:38:42;;;;;;;8.02;5.75;;;0.00;99.90;;;;;;5058729;28;20025;-78
2023/12/21 06:41:08;;;;;;;9.77;6.43;;;-0.10;99.90;;;;;;5058760;28;20025;-78
2023/12/21 06:43:33;;;;;;;8.18;5.30;;;-0.10;99.90;;;;;;5058197;28;20083;-78
2023/12/21 06:46:01;;;;;;;7.10;4.20;;;-0.10;99.90;;;;;;5073473;28;20040;-78
2023/12/21 06:48:27;;;;;;;5.97;3.20;;;0.00;99.90;;;;;;5058442;28;20393;-78
2023/12/21 06:50:52;;;;;;;6.35;3.28;;;0.00;99.90;;;;;;5056231;28;20034;-78
2023/12/21 06:53:18;;;;;;;3.97;2.50;;;0.00;99.90;;;;;;5056222;28;20036;-78
2023/12/21 06:55:44;;;;;;;4.57;2.85;;;0.00;99.90;;;;;;5057353;28;20043;-78
2023/12/21 06:58:10;;;;;;;5.88;3.13;;;0.00;99.90;;;;;;5073237;28;20025;-78
2023/12/21 07:00:35;;;;;;;5.68;3.05;;;0.00;99.90;;;;;;5072542;28;20027;-78
2023/12/21 07:03:02;;;;;;;6.18;3.40;;;0.00;99.90;;;;;;5056368;28;20104;-78
2023/12/21 07:05:28;;;;;;;4.88;2.95;;;0.00;99.90;;;;;;5056094;28;20489;-78
2023/12/21 07:07:57;;;;;;;5.32;3.40;;;0.00;99.90;;;;;;5056352;28;20032;-79
2023/12/21 07:10:22;;;;;;;6.68;3.53;;;0.10;99.90;;;;;;5056259;28;20386;-79
2023/12/21 07:12:48;;;;;;;6.53;4.03;;;0.10;99.90;;;;;;5057903;28;20079;-79
2023/12/21 07:15:14;;;;;;;6.72;3.97;;;0.10;99.90;;;;;;5056088;28;20025;-79
2023/12/21 07:17:40;;;;;;;7.18;3.67;;;0.10;99.90;;;;;;5055833;28;20036;-78
2023/12/21 07:20:07;;;;;;;10.00;4.72;;;0.10;99.90;;;;;;5072358;28;20401;-78
2023/12/21 07:22:32;;;;;;;11.50;5.93;;;0.10;99.90;;;;;;5056673;28;20040;-79
2023/12/21 07:24:58;;;;;;;12.27;6.22;;;0.10;99.90;;;;;;5056830;28;20390;-78
2023/12/21 07:27:24;;;;;;;11.60;6.28;;;0.10;99.90;;;;;;5037230;28;20033;-78
2023/12/21 07:29:50;;;;;;;11.95;6.50;;;0.20;99.90;;;;;;5037410;28;20026;-78
2023/12/21 07:32:16;;;;;;;17.70;8.55;;;0.20;99.90;;;;;;5037533;28;20029;-78
2023/12/21 07:34:42;;;;;;;18.08;8.85;;;0.10;99.90;;;;;;5036734;28;20017;-79
2023/12/21 07:37:08;;;;;;;19.92;8.13;;;0.20;99.90;;;;;;5036450;28;20101;-79
2023/12/21 07:39:34;;;;;;;13.48;6.72;;;0.20;99.90;;;;;;5036787;28;20025;-78
2023/12/21 07:42:01;;;;;;;11.10;5.95;;;0.20;99.90;;;;;;5036757;28;20410;-79
2023/12/21 07:44:26;;;;;;;10.60;5.70;;;0.20;99.90;;;;;;5036960;28;20473;-78
2023/12/21 07:46:52;;;;;;;12.98;7.07;;;0.20;99.90;;;;;;5051753;28;20108;-78
2023/12/21 07:49:18;;;;;;;10.18;5.53;;;0.20;99.90;;;;;;5053822;28;20033;-78
2023/12/21 07:51:44;;;;;;;10.38;5.82;;;0.20;99.90;;;;;;5056071;28;20032;-78
2023/12/21 07:54:10;;;;;;;12.35;5.13;;;0.20;99.90;;;;;;5057216;28;20028;-78
2023/12/21 07:56:35;;;;;;;7.90;5.05;;;0.20;99.90;;;;;;5057189;28;20092;-78
2023/12/21 07:59:06;;;;;;;8.45;5.05;;;0.30;99.90;;;;;;5056183;28;20025;-78
2023/12/21 08:01:32;;;;;;;;;;;0.30;99.90;;;;;;5057748;28;20052;-78
2023/12/21 08:03:58;;;;;;;11.25;5.68;;;0.30;99.90;;;;;;5056802;28;19912;-78
2023/12/21 08:06:24;;;;;;;23.17;15.27;;;0.30;99.90;;;;;;5055416;28;20021;-78
2023/12/21 08:08:52;;;;;;;13.68;9.23;;;0.30;99.90;;;;;;5056754;28;20029;-78
2023/12/21 08:11:21;;;;;;;14.88;7.97;;;0.40;99.90;;;;;;5056947;28;20029;-78
2023/12/21 08:13:48;;;;;;;7.25;4.70;;;0.50;99.90;;;;;;5055152;28;20112;-78
2023/12/21 08:16:14;;;;;;;7.47;4.40;;;0.50;99.90;;;;;;5056884;28;20078;-78
2023/12/21 08:18:40;;;;;;;10.27;6.78;;;0.50;99.90;;;;;;5041617;28;20025;-78
2023/12/21 08:21:05;;;;;;;15.50;9.25;;;0.50;99.90;;;;;;5073925;28;20043;-78
2023/12/21 08:23:31;;;;;;;12.10;7.90;;;0.50;99.90;;;;;;5076140;28;20032;-79
2023/12/21 08:25:57;;;;;;;10.32;6.57;;;0.60;99.90;;;;;;5059544;28;20060;-78
2023/12/21 08:28:23;;;;;;;8.85;5.45;;;0.60;99.90;;;;;;5076338;28;20042;-78
2023/12/21 08:30:49;;;;;;;6.65;3.95;;;0.60;99.90;;;;;;5076261;28;20052;-78
2023/12/21 08:33:14;;;;;;;7.20;4.43;;;0.60;99.90;;;;;;5076034;28;20520;-78
2023/12/21 08:35:40;;;;;;;9.80;4.90;;;0.70;99.90;;;;;;5076551;28;20029;-78
2023/12/21 08:38:05;;;;;;;12.48;5.85;;;0.70;99.90;;;;;;5075924;28;20073;-78
2023/12/21 08:40:31;;;;;;;17.20;11.88;;;0.70;99.90;;;;;;5077099;28;20024;-78
2023/12/21 08:42:57;;;;;;;12.50;8.93;;;0.70;99.90;;;;;;5076157;28;20150;-78
2023/12/21 08:45:23;;;;;;;10.98;7.50;;;0.70;99.90;;;;;;5059860;28;20033;-78
2023/12/21 08:47:48;;;;;;;9.80;7.35;;;0.70;99.90;;;;;;5070232;28;20033;-78
2023/12/21 08:50:14;;;;;;;8.63;6.70;;;0.80;99.90;;;;;;5073026;28;20481;-78
2023/12/21 08:52:41;;;;;;;9.60;6.70;;;0.80;99.90;;;;;;5055667;28;20028;-78
2023/12/21 08:55:08;;;;;;;11.43;6.25;;;0.80;99.90;;;;;;5057059;28;20025;-78
2023/12/21 08:57:36;;;;;;;7.97;5.50;;;0.90;99.90;;;;;;5059842;28;20416;-78
2023/12/21 09:00:06;;;;;;;11.48;6.25;;;0.90;99.90;;;;;;5061283;28;20088;-78
2023/12/21 09:02:38;;;;;;;7.83;5.17;;;0.90;99.90;;;;;;5059890;28;20033;-78
2023/12/21 09:05:04;;;;;;;10.55;6.47;;;1.00;99.90;;;;;;5076381;28;20055;-78
2023/12/21 09:07:30;;;;;;;10.93;6.30;;;1.00;99.90;;;;;;5060204;28;20028;-78
2023/12/21 09:09:56;;;;;;;11.70;6.00;;;1.00;99.90;;;;;;5076044;28;20389;-78
2023/12/21 09:12:22;;;;;;;11.60;6.60;;;1.10;99.90;;;;;;5060929;28;20031;-78
2023/12/21 09:14:47;;;;;;;9.93;5.65;;;1.10;99.90;;;;;;5060938;28;20025;-78
2023/12/21 09:17:14;;;;;;;8.07;5.15;;;1.10;99.90;;;;;;5060639;28;20116;-78
2023/12/21 09:19:41;;;;;;;10.40;6.30;;;1.10;99.90;;;;;;5060892;28;20044;-79
2023/12/21 09:22:06;;;;;;;10.32;6.53;;;1.10;99.90;;;;;;5060256;28;20041;-78
2023/12/21 09:24:32;;;;;;;9.95;5.65;;;1.10;99.90;;;;;;5059028;28;20128;-78
2023/12/21 09:26:58;;;;;;;11.68;7.78;;;1.10;99.90;;;;;;5061909;28;20040;-78
2023/12/21 09:29:24;;;;;;;12.55;7.32;;;1.10;99.90;;;;;;5061168;28;20029;-79
2023/12/21 09:31:50;;;;;;;11.55;7.15;;;1.10;99.90;;;;;;5061036;28;20029;-79
2023/12/21 09:34:17;;;;;;;9.10;6.05;;;1.20;99.90;;;;;;5060393;28;20488;-78
2023/12/21 09:36:43;;;;;;;15.98;8.93;;;1.20;99.90;;;;;;5059260;28;20025;-79
2023/12/21 09:39:12;;;;;;;11.20;7.35;;;1.20;99.90;;;;;;5061180;28;20450;-78
2023/12/21 09:41:38;;;;;;;12.98;7.43;;;1.20;99.90;;;;;;5059990;28;20040;-78
2023/12/21 09:44:05;;;;;;;14.40;8.55;;;1.30;99.90;;;;;;5076360;28;20382;-78
2023/12/21 09:46:38;;;;;;;12.77;7.65;;;1.30;99.90;;;;;;5059046;28;20124;-78
2023/12/21 09:49:07;;;;;;;13.80;7.47;;;1.30;99.90;;;;;;5060231;28;20059;-78
2023/12/21 09:51:34;;;;;;;12.65;7.05;;;1.30;99.90;;;;;;5060598;28;20029;-78
2023/12/21 09:54:04;;;;;;;10.50;6.32;;;1.30;99.90;;;;;;5065301;28;20039;-79
2023/12/21 09:56:33;;;;;;;12.52;6.60;;;1.30;99.90;;;;;;5060150;28;20116;-78
2023/12/21 09:59:01;;;;;;;9.65;6.45;;;1.30;99.90;;;;;;5057255;28;20029;-78
2023/12/21 10:01:27;;;;;;;9.93;6.30;;;1.30;99.90;;;;;;5058269;28;20021;-78
2023/12/21 10:03:53;;;;;;;11.32;6.85;;;1.30;99.90;;;;;;5062475;28;20040;-79
2023/12/21 10:06:18;;;;;;;10.85;6.55;;;1.30;99.90;;;;;;5078082;28;20033;-79
2023/12/21 10:08:44;;;;;;;12.02;7.07;;;1.40;99.90;;;;;;5062577;28;20089;-78
2023/12/21 10:11:10;;;;;;;13.10;8.13;;;1.40;99.90;;;;;;5059816;28;20025;-78
2023/12/21 10:13:36;;;;;;;14.48;8.43;;;1.40;99.90;;;;;;5076282;28;20021;-78
2023/12/21 10:16:05;;;;;;;14.38;7.25;;;1.40;99.90;;;;;;5061596;28;20021;-78
2023/12/21 10:18:31;;;;;;;17.67;10.65;;;1.40;99.90;;;;;;5059089;28;20112;-79
2023/12/21 10:20:59;;;;;;;17.50;8.35;;;1.50;99.90;;;;;;5060045;28;20068;-79
2023/12/21 10:23:25;;;;;;;11.40;7.15;;;1.40;99.90;;;;;;5060961;28;20028;-78
2023/12/21 10:25:54;;;;;;;14.35;9.05;;;1.50;99.90;;;;;;5060003;28;20029;-79
2023/12/21 10:28:24;;;;;;;22.80;14.32;;;1.50;99.90;;;;;;5076247;28;20477;-79
2023/12/21 10:30:57;;;;;;;21.38;11.38;;;1.50;99.90;;;;;;5061023;28;20033;-78
2023/12/21 10:33:26;;;;;;;55.70;26.73;;;1.60;99.90;;;;;;5061363;28;20032;-78
2023/12/21 10:35:52;;;;;;;59.15;26.95;;;1.60;99.90;;;;;;5060270;28;20032;-78
2023/12/21 10:38:19;;;;;;;76.43;35.95;;;1.70;99.90;;;;;;5059907;28;20511;-78
2023/12/21 10:40:46;;;;;;;40.88;20.33;;;1.70;99.90;;;;;;5059655;28;20064;-79
2023/12/21 10:43:14;;;;;;;8.80;4.68;;;1.70;99.90;;;;;;5061454;28;20029;-79
2023/12/21 10:45:44;;;;;;;6.28;3.83;;;1.80;99.90;;;;;;5059788;28;20048;-79
2023/12/21 10:48:13;;;;;;;10.23;4.65;;;1.80;99.90;;;;;;5059887;28;20021;-79
2023/12/21 10:50:39;;;;;;;9.65;4.85;;;1.80;99.90;;;;;;5060249;28;20579;-79
2023/12/21 10:53:05;;;;;;;9.68;4.72;;;1.90;99.90;;;;;;5058161;28;20033;-79
2023/12/21 10:55:32;;;;;;;35.33;14.23;;;1.90;99.90;;;;;;5058718;28;20029;-79
2023/12/21 10:58:02;;;;;;;12.43;6.68;;;1.90;99.90;;;;;;5042122;28;20021;-79
2023/12/21 11:00:28;;;;;;;12.45;6.43;;;2.00;99.90;;;;;;5060612;28;20029;-79
2023/12/21 11:02:57;;;;;;;11.20;6.20;;;2.00;99.90;;;;;;5059054;28;20064;-79
2023/12/21 11:05:23;;;;;;;11.50;5.45;;;2.00;99.90;;;;;;5058763;28;20025;-79
2023/12/21 11:07:50;;;;;;;10.35;5.03;;;2.10;99.90;;;;;;5042527;28;20067;-79
2023/12/21 11:10:21;;;;;;;10.52;7.28;;;2.10;99.90;;;;;;5059661;28;20502;-79
2023/12/21 11:12:47;;;;;;;;;;;2.20;99.90;;;;;;5059685;28;20520;-79
2023/12/21 11:15:15;;;;;;;7.93;5.82;;;2.10;99.90;;;;;;5058669;28;19909;-79
2023/12/21 11:17:45;;;;;;;9.20;6.28;;;2.20;99.90;;;;;;5058347;28;20036;-79
2023/12/21 11:20:16;;;;;;;9.32;6.18;;;2.10;99.90;;;;;;5058936;28;20021;-79
2023/12/21 11:22:42;;;;;;;;;;;2.20;99.90;;;;;;5058603;28;20484;-79
2023/12/21 11:25:12;;;;;;;12.13;6.70;;;2.20;99.90;;;;;;5058604;28;19955;-79
2023/12/21 11:27:39;;;;;;;12.75;6.40;;;2.20;99.90;;;;;;5058101;28;20033;-79
2023/12/21 11:30:12;;;;;;;10.68;5.65;;;2.20;99.90;;;;;;5057798;28;20057;-79
2023/12/21 11:32:43;;;;;;;11.88;6.22;;;2.20;99.90;;;;;;5059603;28;20024;-79
2023/12/21 11:35:19;;;;;;;12.23;6.15;;;2.20;99.90;;;;;;5057652;28;20024;-79
2023/12/21 11:37:49;;;;;;;11.90;6.10;;;2.20;99.90;;;;;;5059316;28;20494;-79
2023/12/21 11:40:17;;;;;;;12.48;6.57;;;2.20;99.90;;;;;;5059502;28;20520;-79
2023/12/21 11:42:46;;;;;;;14.32;6.80;;;2.20;99.90;;;;;;5058865;28;20025;-79
2023/12/21 11:45:19;;;;;;;15.80;8.13;;;2.20;99.90;;;;;;5059125;28;20025;-79
2023/12/21 11:47:45;;;;;;;15.68;8.07;;;2.20;99.90;;;;;;5061403;28;20084;-79
2023/12/21 11:50:11;;;;;;;10.68;6.40;;;2.30;99.90;;;;;;5042930;28;20037;-79
2023/12/21 11:52:37;;;;;;;14.30;10.50;;;2.30;99.90;;;;;;5059067;28;20035;-79
2023/12/21 11:55:04;;;;;;;28.50;22.63;;;2.30;99.90;;;;;;5058790;28;20036;-79
2023/12/21 11:57:31;;;;;;;19.67;14.82;;;2.30;99.90;;;;;;5059716;28;20116;-79
2023/12/21 12:00:07;;;;;;;12.75;6.38;;;2.30;99.90;;;;;;5061334;28;20029;-79
2023/12/21 12:02:36;;;;;;;10.30;5.43;;;2.40;99.90;;;;;;5063099;28;20468;-79
2023/12/21 12:05:05;;;;;;;7.57;4.20;;;2.40;99.90;;;;;;5062819;28;20028;-79
2023/12/21 12:07:34;;;;;;;8.32;4.53;;;2.40;99.90;;;;;;5062080;28;20083;-79
2023/12/21 12:10:00;;;;;;;10.05;5.25;;;2.40;99.90;;;;;;5062121;28;20025;-79
2023/12/21 12:12:26;;;;;;;9.30;4.90;;;2.50;99.90;;;;;;5061550;28;20123;-79
2023/12/21 12:14:52;;;;;;;10.13;4.90;;;2.60;99.90;;;;;;5061008;28;20049;-79
2023/12/21 12:17:18;;;;;;;7.20;4.57;;;2.60;99.90;;;;;;5061734;28;20025;-79
2023/12/21 12:19:44;;;;;;;6.30;3.92;;;2.60;99.90;;;;;;5059466;28;20033;-79
2023/12/21 12:22:10;;;;;;;8.00;3.97;;;2.60;99.90;;;;;;5060601;28;20056;-79
2023/12/21 12:24:36;;;;;;;6.95;4.07;;;2.60;99.90;;;;;;5059080;28;20458;-79
2023/12/21 12:27:02;;;;;;;6.88;4.28;;;2.70;99.90;;;;;;5059473;28;20036;-79
2023/12/21 12:29:29;;;;;;;8.88;4.93;;;2.70;99.90;;;;;;5059605;28;20029;-79
2023/12/21 12:31:55;;;;;;;7.30;4.88;;;2.70;99.90;;;;;;5077438;28;20021;-79
2023/12/21 12:34:21;;;;;;;5.57;3.60;;;2.70;99.90;;;;;;5058751;28;20025;-79
2023/12/21 12:36:56;;;;;;;5.72;4.15;;;2.60;99.90;;;;;;5059295;28;20051;-79
2023/12/21 12:39:22;;;;;;;7.85;4.68;;;2.60;99.90;;;;;;5042124;28;20033;-80
2023/12/21 12:41:54;;;;;;;5.88;3.60;;;2.70;99.90;;;;;;5061567;28;20039;-80
2023/12/21 12:44:20;;;;;;;5.28;3.15;;;2.70;99.90;;;;;;5064814;28;20075;-79